createdAt,value
2022-11-28T00:01:22.223Z,11.83
2022-11-28T00:03:49.017Z,11.81
2022-11-28T00:06:16.092Z,11.74
2022-11-28T00:08:43.258Z,11.73
2022-11-28T00:11:11.950Z,11.77
2022-11-28T00:13:39.335Z,11.76
2022-11-28T00:16:08.069Z,11.72
2022-11-28T00:18:35.772Z,11.68
2022-11-28T00:21:05.579Z,11.60
2022-11-28T00:23:33.151Z,11.53
2022-11-28T00:26:01.938Z,11.56
2022-11-28T00:28:28.537Z,11.57
2022-11-28T00:30:55.475Z,11.64
2022-11-28T00:33:22.293Z,11.65
2022-11-28T00:35:48.991Z,11.65
2022-11-28T00:38:15.802Z,11.59
2022-11-28T00:40:42.499Z,11.58
2022-11-28T00:43:09.156Z,11.57
2022-11-28T00:45:35.859Z,11.52
2022-11-28T00:48:02.660Z,11.50
2022-11-28T00:50:29.402Z,11.45
2022-11-28T00:52:56.015Z,11.41
2022-11-28T00:55:22.843Z,11.40
2022-11-28T00:57:49.566Z,11.35
2022-11-28T01:00:16.559Z,11.35
2022-11-28T01:02:43.349Z,11.39
2022-11-28T01:05:10.329Z,11.39
2022-11-28T01:07:37.269Z,11.37
2022-11-28T01:10:04.542Z,11.40
2022-11-28T01:12:31.202Z,11.37
2022-11-28T01:14:58.361Z,11.35
2022-11-28T01:17:25.158Z,11.35
2022-11-28T01:19:51.803Z,11.34
2022-11-28T01:22:18.506Z,11.30
2022-11-28T01:24:45.331Z,11.33
2022-11-28T01:27:11.952Z,11.31
2022-11-28T01:29:38.643Z,11.25
2022-11-28T01:32:05.502Z,11.24
2022-11-28T01:34:32.304Z,11.17
2022-11-28T01:37:00.109Z,11.21
2022-11-28T01:39:28.208Z,11.20
2022-11-28T01:41:54.862Z,11.21
2022-11-28T01:44:21.422Z,11.25
2022-11-28T01:46:48.161Z,11.24
2022-11-28T01:49:21.488Z,11.22
2022-11-28T01:51:54.045Z,11.21
2022-11-28T01:54:23.975Z,11.17
2022-11-28T01:56:56.005Z,11.18
2022-11-28T01:59:26.496Z,11.16
2022-11-28T02:01:53.420Z,11.16
2022-11-28T02:04:20.401Z,11.18
2022-11-28T02:06:47.072Z,11.15
2022-11-28T02:09:15.482Z,11.13
2022-11-28T02:11:48.130Z,11.17
2022-11-28T02:14:45.845Z,11.14
2022-11-28T02:17:28.576Z,11.15
2022-11-28T02:20:32.504Z,11.12
2022-11-28T02:23:11.175Z,11.11
2022-11-28T02:25:45.683Z,11.09
2022-11-28T02:28:18.295Z,11.10
2022-11-28T02:31:22.614Z,11.12
2022-11-28T02:33:53.597Z,11.08
2022-11-28T02:36:25.175Z,11.08
2022-11-28T02:39:31.846Z,11.11
2022-11-28T02:42:15.424Z,11.11
2022-11-28T02:44:55.737Z,11.09
2022-11-28T02:47:30.842Z,11.06
2022-11-28T02:50:08.849Z,11.03
2022-11-28T02:53:00.148Z,10.96
2022-11-28T02:55:27.749Z,10.89
2022-11-28T02:57:55.178Z,10.83
2022-11-28T03:00:29.296Z,10.83
2022-11-28T03:03:20.087Z,10.88
2022-11-28T03:06:10.688Z,10.82
2022-11-28T03:09:01.944Z,10.84
2022-11-28T03:11:34.427Z,10.86
2022-11-28T03:14:18.825Z,10.89
2022-11-28T03:16:57.385Z,10.83
2022-11-28T03:19:39.763Z,10.81
2022-11-28T03:22:25.950Z,10.74
2022-11-28T03:25:24.842Z,10.78
2022-11-28T03:28:07.411Z,10.70
2022-11-28T03:30:57.234Z,10.71
2022-11-28T03:33:28.003Z,10.71
2022-11-28T03:36:02.042Z,10.64
2022-11-28T03:38:35.588Z,10.67
2022-11-28T03:41:10.301Z,10.63
2022-11-28T03:43:44.312Z,10.65
2022-11-28T03:46:15.867Z,10.69
2022-11-28T03:48:48.509Z,10.70
2022-11-28T03:51:24.462Z,10.74
2022-11-28T03:53:55.857Z,10.77
2022-11-28T03:56:38.090Z,10.79
2022-11-28T03:59:12.464Z,10.82
2022-11-28T04:02:16.966Z,10.87
2022-11-28T04:05:03.461Z,10.95
2022-11-28T04:07:45.459Z,10.90
2022-11-28T04:10:30.938Z,10.98
2022-11-28T04:13:16.392Z,11.05
2022-11-28T04:16:32.416Z,11.07
2022-11-28T04:19:08.725Z,11.11
2022-11-28T04:21:45.208Z,11.15
2022-11-28T04:24:17.680Z,11.14
2022-11-28T04:26:51.398Z,11.15
2022-11-28T04:29:22.711Z,11.15
2022-11-28T04:31:53.825Z,11.18
2022-11-28T04:34:22.924Z,11.23
2022-11-28T04:36:51.220Z,11.29
2022-11-28T04:39:22.188Z,11.31
2022-11-28T04:41:54.030Z,11.37
2022-11-28T04:44:39.194Z,11.38
2022-11-28T04:47:06.040Z,11.36
2022-11-28T04:49:33.739Z,11.37
2022-11-28T04:52:27.134Z,11.40
2022-11-28T04:55:12.052Z,11.43
2022-11-28T04:58:09.387Z,11.47
2022-11-28T05:00:37.446Z,11.49
2022-11-28T05:03:05.942Z,11.48
2022-11-28T05:05:42.968Z,11.50
2022-11-28T05:08:10.307Z,11.49
2022-11-28T05:10:37.352Z,11.53
2022-11-28T05:13:04.266Z,11.60
2022-11-28T05:15:30.958Z,11.59
2022-11-28T05:17:57.731Z,11.61
2022-11-28T05:20:24.851Z,11.66
2022-11-28T05:22:51.573Z,11.69
2022-11-28T05:25:18.574Z,11.71
2022-11-28T05:27:45.502Z,11.70
2022-11-28T05:30:13.070Z,11.64
2022-11-28T05:32:39.861Z,11.76
2022-11-28T05:35:06.751Z,11.82
2022-11-28T05:37:33.992Z,11.78
2022-11-28T05:40:00.946Z,11.84
2022-11-28T05:42:28.444Z,11.89
2022-11-28T05:44:55.133Z,11.94
2022-11-28T05:47:23.727Z,11.93
2022-11-28T05:49:50.439Z,11.83
2022-11-28T05:52:17.159Z,11.77
2022-11-28T05:54:44.023Z,11.80
2022-11-28T05:57:10.726Z,11.81
2022-11-28T05:59:37.690Z,11.85
2022-11-28T06:02:04.443Z,11.88
2022-11-28T06:04:31.428Z,11.86
2022-11-28T06:06:58.310Z,11.89
2022-11-28T06:09:26.188Z,11.96
2022-11-28T06:11:53.213Z,12.01
2022-11-28T06:14:20.115Z,12.04
2022-11-28T06:16:49.440Z,12.13
2022-11-28T06:19:16.137Z,12.19
2022-11-28T06:21:43.667Z,12.14
2022-11-28T06:24:10.868Z,12.26
2022-11-28T06:26:37.768Z,12.28
2022-11-28T06:29:04.560Z,12.26
2022-11-28T06:31:31.357Z,12.34
2022-11-28T06:33:58.658Z,12.38
2022-11-28T06:36:26.424Z,12.44
2022-11-28T06:38:54.190Z,12.47
2022-11-28T06:41:22.827Z,12.42
2022-11-28T06:43:57.193Z,12.46
2022-11-28T06:46:24.227Z,12.54
2022-11-28T06:48:52.174Z,12.59
2022-11-28T06:51:19.468Z,12.61
2022-11-28T06:53:46.191Z,12.64
2022-11-28T06:56:15.750Z,12.64
2022-11-28T06:58:43.054Z,12.55
2022-11-28T07:01:18.816Z,12.60
2022-11-28T07:03:46.737Z,12.65
2022-11-28T07:06:14.956Z,12.59
2022-11-28T07:08:42.425Z,12.54
2022-11-28T07:11:12.117Z,12.49
2022-11-28T07:13:39.817Z,12.44
2022-11-28T07:16:07.906Z,12.42
2022-11-28T07:18:34.884Z,12.44
2022-11-28T07:21:01.930Z,12.42
2022-11-28T07:23:28.619Z,12.42
2022-11-28T07:26:00.731Z,12.37
2022-11-28T07:28:28.710Z,12.36
2022-11-28T07:31:04.965Z,12.32
2022-11-28T07:33:33.693Z,12.29
2022-11-28T07:36:05.599Z,12.32
2022-11-28T07:38:32.725Z,12.34
2022-11-28T07:41:07.671Z,12.38
2022-11-28T07:43:34.728Z,12.39
2022-11-28T07:46:07.022Z,12.43
2022-11-28T07:48:34.944Z,12.49
2022-11-28T07:51:10.524Z,12.48
2022-11-28T07:53:37.954Z,12.50
2022-11-28T07:56:06.489Z,12.43
2022-11-28T07:58:34.171Z,12.50
2022-11-28T08:01:01.679Z,12.52
2022-11-28T08:03:28.360Z,12.53
2022-11-28T08:06:02.971Z,12.48
2022-11-28T08:08:30.127Z,12.55
2022-11-28T08:11:05.058Z,12.61
2022-11-28T08:13:32.599Z,12.59
2022-11-28T08:16:03.887Z,12.58
2022-11-28T08:18:30.607Z,12.63
2022-11-28T08:21:05.990Z,12.63
2022-11-28T08:23:34.061Z,12.63
2022-11-28T08:26:05.703Z,12.62
2022-11-28T08:28:32.638Z,12.56
2022-11-28T08:31:01.902Z,12.60
2022-11-28T08:33:28.672Z,12.55
2022-11-28T08:35:55.377Z,12.54
2022-11-28T08:38:22.082Z,12.56
2022-11-28T08:40:48.693Z,12.58
2022-11-28T08:43:15.417Z,12.63
2022-11-28T08:45:42.161Z,12.65
2022-11-28T08:48:08.869Z,12.68
2022-11-28T08:50:35.575Z,12.68
2022-11-28T08:53:07.746Z,12.71
2022-11-28T08:55:39.087Z,12.78
2022-11-28T08:58:08.540Z,12.75
2022-11-28T09:00:35.202Z,12.73
2022-11-28T09:03:02.309Z,12.78
2022-11-28T09:05:30.096Z,12.80
2022-11-28T09:07:57.194Z,12.84
2022-11-28T09:10:24.913Z,12.89
2022-11-28T09:12:52.262Z,12.92
2022-11-28T09:15:19.173Z,12.94
2022-11-28T09:17:46.505Z,12.95
2022-11-28T09:20:13.309Z,12.95
2022-11-28T09:22:40.716Z,12.98
2022-11-28T09:25:08.168Z,13.00
2022-11-28T09:27:34.962Z,13.05
2022-11-28T09:30:01.969Z,13.09
2022-11-28T09:32:28.680Z,13.06
2022-11-28T09:34:55.369Z,13.11
2022-11-28T09:37:22.124Z,13.04
2022-11-28T09:40:11.578Z,13.10
2022-11-28T09:42:43.574Z,13.17
2022-11-28T09:45:22.030Z,13.22
2022-11-28T09:47:54.175Z,13.26
2022-11-28T09:50:32.846Z,13.31
2022-11-28T09:53:28.723Z,13.38
2022-11-28T09:56:00.034Z,13.42
2022-11-28T09:58:45.818Z,13.51
2022-11-28T10:01:28.621Z,13.59
2022-11-28T10:04:04.181Z,13.75
2022-11-28T10:07:06.375Z,13.80
2022-11-28T10:09:52.104Z,13.83
2022-11-28T10:12:48.118Z,13.91
2022-11-28T10:15:29.650Z,13.91
2022-11-28T10:18:07.624Z,13.98
2022-11-28T10:20:41.898Z,13.94
2022-11-28T10:23:32.647Z,14.00
2022-11-28T10:26:07.658Z,14.05
2022-11-28T10:28:38.970Z,14.12
2022-11-28T10:31:15.840Z,14.22
2022-11-28T10:33:55.008Z,14.17
2022-11-28T10:36:30.351Z,14.26
2022-11-28T10:39:00.854Z,14.40
2022-11-28T10:41:36.810Z,14.32
2022-11-28T10:44:10.468Z,14.37
2022-11-28T10:46:50.792Z,14.42
2022-11-28T10:49:33.484Z,14.55
2022-11-28T10:52:08.209Z,14.59
2022-11-28T10:55:07.431Z,14.66
2022-11-28T10:57:43.924Z,14.67
2022-11-28T11:00:18.823Z,14.78
2022-11-28T11:02:55.867Z,14.95
2022-11-28T11:05:34.240Z,15.13
2022-11-28T11:08:24.944Z,15.14
2022-11-28T11:10:59.929Z,15.15
2022-11-28T11:13:34.196Z,15.10
2022-11-28T11:16:04.500Z,15.13
2022-11-28T11:18:31.313Z,15.05
2022-11-28T11:21:08.591Z,15.10
2022-11-28T11:23:38.467Z,15.03
2022-11-28T11:26:10.383Z,15.03
2022-11-28T11:28:47.023Z,14.95
2022-11-28T11:31:30.253Z,14.94
2022-11-28T11:34:07.585Z,14.81
2022-11-28T11:36:36.611Z,14.80
2022-11-28T11:39:19.061Z,14.74
2022-11-28T11:41:51.431Z,14.83
2022-11-28T11:44:29.266Z,14.82
2022-11-28T11:46:57.428Z,14.79
2022-11-28T11:49:30.042Z,14.76
2022-11-28T11:51:58.363Z,14.83
2022-11-28T11:54:25.211Z,14.81
2022-11-28T11:57:05.736Z,14.89
2022-11-28T11:59:50.600Z,14.84
2022-11-28T12:02:31.115Z,14.89
2022-11-28T12:05:19.456Z,14.95
2022-11-28T12:08:03.534Z,15.01
2022-11-28T12:10:34.502Z,15.05
2022-11-28T12:13:04.654Z,15.07
2022-11-28T12:15:45.662Z,15.03
2022-11-28T12:18:36.949Z,15.04
2022-11-28T12:21:13.860Z,15.05
2022-11-28T12:24:03.610Z,15.04
2022-11-28T12:26:54.769Z,15.02
2022-11-28T12:29:57.792Z,15.09
2022-11-28T12:32:42.844Z,15.09
2022-11-28T12:35:21.445Z,15.02
2022-11-28T12:38:10.464Z,14.98
2022-11-28T12:40:44.002Z,15.00
2022-11-28T12:43:21.443Z,14.98
2022-11-28T12:45:51.096Z,15.01
2022-11-28T12:48:23.660Z,15.07
2022-11-28T12:51:16.024Z,15.14
2022-11-28T12:54:20.110Z,15.12
2022-11-28T12:56:53.696Z,15.10
2022-11-28T12:59:40.064Z,15.02
2022-11-28T13:02:28.674Z,15.00
2022-11-28T13:05:17.577Z,15.10
2022-11-28T13:08:16.593Z,15.07
2022-11-28T13:11:10.981Z,14.88
2022-11-28T13:13:55.074Z,14.82
2022-11-28T13:16:43.844Z,14.79
2022-11-28T13:19:32.398Z,14.71
2022-11-28T13:22:14.739Z,14.73
2022-11-28T13:24:50.726Z,14.72
2022-11-28T13:27:25.511Z,14.72
2022-11-28T13:30:26.658Z,14.71
2022-11-28T13:33:31.900Z,14.71
2022-11-28T13:36:00.626Z,14.72
2022-11-28T13:39:11.264Z,14.78
2022-11-28T13:45:00.225Z,14.77
2022-11-28T13:47:31.373Z,14.78
2022-11-28T13:50:29.965Z,14.76
2022-11-28T13:53:12.635Z,14.77
2022-11-28T13:55:47.704Z,14.69
2022-11-28T13:58:28.768Z,14.71
2022-11-28T14:01:17.770Z,14.67
2022-11-28T14:03:46.787Z,14.67
2022-11-28T14:06:19.507Z,14.67
2022-11-28T14:08:50.054Z,14.69
2022-11-28T14:11:28.151Z,14.58
2022-11-28T14:14:27.800Z,14.53
2022-11-28T14:17:15.759Z,14.53
2022-11-28T14:20:05.609Z,14.48
2022-11-28T14:22:47.604Z,14.49
2022-11-28T14:25:23.627Z,14.53
2022-11-28T14:28:20.295Z,14.53
2022-11-28T14:30:49.214Z,14.53
2022-11-28T14:33:34.640Z,14.56
2022-11-28T14:36:06.260Z,14.55
2022-11-28T14:38:33.813Z,14.54
2022-11-28T14:41:05.287Z,14.56
2022-11-28T14:43:34.462Z,14.54
2022-11-28T14:46:19.470Z,14.55
2022-11-28T14:48:59.156Z,14.49
2022-11-28T14:52:30.732Z,14.43
2022-11-28T14:54:53.492Z,14.43
2022-11-28T14:57:25.561Z,14.44
2022-11-28T14:59:54.606Z,14.40
2022-11-28T15:02:34.623Z,14.34
2022-11-28T15:05:24.149Z,14.37
2022-11-28T15:07:50.838Z,14.32
2022-11-28T15:10:29.788Z,14.34
2022-11-28T15:13:19.136Z,14.33
2022-11-28T15:15:49.909Z,14.34
2022-11-28T15:18:22.223Z,14.31
2022-11-28T15:20:55.239Z,14.28
2022-11-28T15:23:23.757Z,14.27
2022-11-28T15:25:55.712Z,14.24
2022-11-28T15:28:25.368Z,14.28
2022-11-28T15:30:53.247Z,14.28
2022-11-28T15:33:21.253Z,14.30
2022-11-28T15:36:10.688Z,14.31
2022-11-28T15:38:41.229Z,14.30
2022-11-28T15:41:08.228Z,14.34
2022-11-28T15:43:38.256Z,14.34
2022-11-28T15:46:05.935Z,14.31
2022-11-28T15:48:46.924Z,14.29
2022-11-28T15:51:32.595Z,14.29
2022-11-28T15:54:00.506Z,14.28
2022-11-28T15:56:29.611Z,14.27
2022-11-28T15:58:56.387Z,14.26
2022-11-28T16:01:25.885Z,14.28
2022-11-28T16:04:10.724Z,14.28
2022-11-28T16:06:39.821Z,14.30
2022-11-28T16:09:23.179Z,14.33
2022-11-28T16:11:53.222Z,14.34
2022-11-28T16:14:30.799Z,14.36
2022-11-28T16:16:59.308Z,14.27
2022-11-28T16:19:32.779Z,14.24
2022-11-28T16:22:11.676Z,14.19
2022-11-28T16:24:48.865Z,14.18
2022-11-28T16:27:35.616Z,14.15
2022-11-28T16:30:24.602Z,14.13
2022-11-28T16:32:52.998Z,14.13
2022-11-28T16:35:30.958Z,14.08
2022-11-28T16:38:21.142Z,14.01
2022-11-28T16:40:48.197Z,13.97
2022-11-28T16:43:28.331Z,13.94
2022-11-28T16:46:00.209Z,13.90
2022-11-28T16:48:30.560Z,13.88
2022-11-28T16:51:26.532Z,13.90
2022-11-28T16:53:55.539Z,13.90
2022-11-28T16:56:44.357Z,13.85
2022-11-28T16:59:16.641Z,13.86
2022-11-28T17:01:48.984Z,13.89
2022-11-28T17:04:30.705Z,13.85
2022-11-28T17:07:05.066Z,13.81
2022-11-28T17:09:33.856Z,13.76
2022-11-28T17:12:26.669Z,13.76
2022-11-28T17:14:54.009Z,13.79
2022-11-28T17:17:23.296Z,13.82
2022-11-28T17:19:50.267Z,13.84
2022-11-28T17:22:20.207Z,13.84
2022-11-28T17:24:48.578Z,13.85
2022-11-28T17:27:16.612Z,13.85
2022-11-28T17:29:43.793Z,13.80
2022-11-28T17:32:14.698Z,13.80
2022-11-28T17:34:42.439Z,13.80
2022-11-28T17:37:10.013Z,13.80
2022-11-28T17:39:36.697Z,13.79
2022-11-28T17:42:05.001Z,13.78
2022-11-28T17:44:34.694Z,13.78
2022-11-28T17:47:02.230Z,13.75
2022-11-28T17:49:30.817Z,13.75
2022-11-28T17:51:58.780Z,13.75
2022-11-28T17:54:26.965Z,13.74
2022-11-28T17:56:54.669Z,13.71
2022-11-28T17:59:23.752Z,13.70
2022-11-28T18:01:50.834Z,13.74
2022-11-28T18:04:23.387Z,13.77
2022-11-28T18:06:50.137Z,13.73
2022-11-28T18:09:16.977Z,13.66
2022-11-28T18:11:46.651Z,13.61
2022-11-28T18:14:14.586Z,13.55
2022-11-28T18:16:43.895Z,13.52
2022-11-28T18:19:10.961Z,13.50
2022-11-28T18:21:38.744Z,13.49
2022-11-28T18:24:05.707Z,13.51
2022-11-28T18:26:32.751Z,13.57
2022-11-28T18:28:59.480Z,13.58
2022-11-28T18:31:28.988Z,13.65
2022-11-28T18:34:02.076Z,13.63
2022-11-28T18:36:33.827Z,13.63
2022-11-28T18:39:04.332Z,13.63
2022-11-28T18:41:31.875Z,13.66
2022-11-28T18:44:01.802Z,13.68
2022-11-28T18:46:29.842Z,13.68
2022-11-28T18:48:57.204Z,13.70
2022-11-28T18:51:25.326Z,13.68
2022-11-28T18:53:53.329Z,13.63
2022-11-28T18:56:21.250Z,13.63
2022-11-28T18:58:53.955Z,13.62
2022-11-28T19:01:34.557Z,13.67
2022-11-28T19:04:07.357Z,13.68
2022-11-28T19:06:37.627Z,13.71
2022-11-28T19:09:06.884Z,13.73
2022-11-28T19:11:33.955Z,13.70
2022-11-28T19:14:01.752Z,13.71
2022-11-28T19:16:33.129Z,13.71
2022-11-28T19:19:01.559Z,13.74
2022-11-28T19:21:32.687Z,13.72
2022-11-28T19:24:00.709Z,13.71
2022-11-28T19:26:30.657Z,13.70
2022-11-28T19:28:59.888Z,13.66
2022-11-28T19:31:30.286Z,13.60
2022-11-28T19:34:03.595Z,13.59
2022-11-28T19:36:41.079Z,13.58
2022-11-28T19:39:17.060Z,13.60
2022-11-28T19:41:45.210Z,13.60
2022-11-28T19:44:13.537Z,13.58
2022-11-28T19:46:41.324Z,13.58
2022-11-28T19:49:14.256Z,13.58
2022-11-28T19:51:40.906Z,13.48
2022-11-28T19:54:08.158Z,13.48
2022-11-28T19:56:35.407Z,13.49
2022-11-28T19:59:02.451Z,13.49
2022-11-28T20:01:29.224Z,13.53
2022-11-28T20:03:57.639Z,13.56
2022-11-28T20:06:29.769Z,13.57
2022-11-28T20:09:00.830Z,13.55
2022-11-28T20:11:31.579Z,13.54
2022-11-28T20:14:15.143Z,13.56
2022-11-28T20:16:42.850Z,13.58
2022-11-28T20:19:11.144Z,13.61
2022-11-28T20:21:37.965Z,13.62
2022-11-28T20:24:07.447Z,13.69
2022-11-28T20:26:44.414Z,13.63
2022-11-28T20:29:15.565Z,13.62
2022-11-28T20:31:46.291Z,13.63
2022-11-28T20:34:16.634Z,13.63
2022-11-28T20:36:44.006Z,13.59
2022-11-28T20:39:11.845Z,13.62
2022-11-28T20:41:38.798Z,13.69
2022-11-28T20:44:05.746Z,13.71
2022-11-28T20:46:34.118Z,13.66
2022-11-28T20:49:03.891Z,13.63
2022-11-28T20:51:33.247Z,13.71
2022-11-28T20:54:00.649Z,13.69
2022-11-28T20:56:30.418Z,13.66
2022-11-28T20:59:02.453Z,13.63
2022-11-28T21:01:33.759Z,13.65
2022-11-28T21:04:02.895Z,13.70
2022-11-28T21:06:30.076Z,13.64
2022-11-28T21:08:57.468Z,13.62
2022-11-28T21:14:15.460Z,13.60
2022-11-28T21:16:42.562Z,13.63
2022-11-28T21:19:09.497Z,13.64
2022-11-28T21:21:38.696Z,13.60
2022-11-28T21:24:10.425Z,13.62
2022-11-28T21:26:45.258Z,13.62
2022-11-28T21:29:16.449Z,13.56
2022-11-28T21:31:44.885Z,13.62
2022-11-28T21:34:15.140Z,13.59
2022-11-28T21:36:42.664Z,13.62
2022-11-28T21:39:14.530Z,13.64
2022-11-28T21:41:41.450Z,13.58
2022-11-28T21:44:08.847Z,13.61
2022-11-28T21:46:35.850Z,13.63
2022-11-28T21:49:02.677Z,13.56
2022-11-28T21:51:29.578Z,13.58
2022-11-28T21:53:59.930Z,13.54
2022-11-28T21:56:27.466Z,13.49
2022-11-28T21:58:54.317Z,13.50
2022-11-28T22:01:21.612Z,13.49
2022-11-28T22:03:49.003Z,13.47
2022-11-28T22:06:22.482Z,13.45
2022-11-28T22:08:49.937Z,13.44
2022-11-28T22:11:17.666Z,13.43
2022-11-28T22:13:46.020Z,13.46
2022-11-28T22:16:12.869Z,13.50
2022-11-28T22:18:39.702Z,13.50
2022-11-28T22:21:28.625Z,13.46
2022-11-28T22:23:58.358Z,13.47
2022-11-28T22:26:25.098Z,13.47
2022-11-28T22:28:53.770Z,13.46
2022-11-28T22:31:22.863Z,13.42
2022-11-28T22:33:50.477Z,13.43
2022-11-28T22:36:45.611Z,13.45
2022-11-28T22:39:12.412Z,13.42
2022-11-28T22:41:39.777Z,13.42
2022-11-28T22:44:06.781Z,13.42
2022-11-28T22:46:33.733Z,13.44
2022-11-28T22:49:01.803Z,13.45
2022-11-28T22:51:31.289Z,13.48
2022-11-28T22:54:01.073Z,13.47
2022-11-28T22:56:31.188Z,13.46
2022-11-28T22:58:58.939Z,13.39
2022-11-28T23:01:29.552Z,13.40
2022-11-28T23:03:56.806Z,13.43
2022-11-28T23:06:26.914Z,13.39
2022-11-28T23:08:55.750Z,13.43
2022-11-28T23:11:26.422Z,13.47
2022-11-28T23:13:54.128Z,13.50
2022-11-28T23:16:24.386Z,13.51
2022-11-28T23:18:54.480Z,13.48
2022-11-28T23:21:23.047Z,13.52
2022-11-28T23:23:50.121Z,13.46
2022-11-28T23:26:19.972Z,13.43
2022-11-28T23:28:47.714Z,13.47
2022-11-28T23:31:20.356Z,13.44
2022-11-28T23:33:48.507Z,13.38
2022-11-28T23:36:22.299Z,13.39
2022-11-28T23:38:52.353Z,13.41
2022-11-28T23:41:19.277Z,13.42
2022-11-28T23:43:46.564Z,13.45
2022-11-28T23:46:14.672Z,13.48
2022-11-28T23:48:43.600Z,13.47
2022-11-28T23:51:15.238Z,13.34
2022-11-28T23:53:43.101Z,13.35
2022-11-28T23:56:14.121Z,13.42
2022-11-28T23:58:41.364Z,13.44
